KSFZ/SFZ METAR and TAF weather

Enter ICAO airport designator
Station Type Date Time Source
KSFZ METAR 2022/12/10 01:56 UTC NOAA

KSFZ 100156Z AUTO 36008KT 10SM CLR 01/M16 A3025 RMK AO2 SLP247 T00111156 FZRANO


Station Type Date Time Source
KSFZ Decoded METAR 2022/12/10 01:56 UTC NOAA

Pawtucket, North Central State Airport, RI, United States (KSFZ) 41-55N 071-30W
Dec 09, 2022 - 08:56 PM EST / 2022.12.10 0156 UTC
Wind: from the N (360 degrees) at 9 MPH (8 KT):0
Visibility: 10 mile(s):0
Sky conditions: clear
Temperature: 34.0 F (1.1 C)
Windchill: 26 F (-3 C):1
Dew Point: 3.9 F (-15.6 C)
Relative Humidity: 27%
Pressure (altimeter): 30.25 in. Hg (1024 hPa)
ob: KSFZ 100156Z AUTO 36008KT 10SM CLR 01/M16 A3025 RMK AO2 SLP247 T00111156 FZRANO
cycle: 2

Station Type Date Time Source
KSFZ TAF UTC NOAA

Error!

Example: see airport list